sensor_id;sensor_type;location;lat;lon;timestamp;P1;durP1;ratioP1;P2;durP2;ratioP2
32625;SDS011;19038;50.922;11.880;2022-11-25T00:02:28;18.50;;;16.53;;
32625;SDS011;19038;50.922;11.880;2022-11-25T00:07:28;20.13;;;17.93;;
32625;SDS011;19038;50.922;11.880;2022-11-25T00:12:28;18.73;;;16.57;;
32625;SDS011;19038;50.922;11.880;2022-11-25T00:17:28;17.03;;;15.23;;
32625;SDS011;19038;50.922;11.880;2022-11-25T00:22:28;14.67;;;13.13;;
32625;SDS011;19038;50.922;11.880;2022-11-25T00:27:28;14.43;;;12.83;;
32625;SDS011;19038;50.922;11.880;2022-11-25T00:32:28;16.40;;;13.93;;
32625;SDS011;19038;50.922;11.880;2022-11-25T00:37:28;14.70;;;13.20;;
32625;SDS011;19038;50.922;11.880;2022-11-25T00:42:28;15.50;;;13.90;;
32625;SDS011;19038;50.922;11.880;2022-11-25T00:47:28;15.27;;;13.57;;
32625;SDS011;19038;50.922;11.880;2022-11-25T00:52:28;16.37;;;14.30;;
32625;SDS011;19038;50.922;11.880;2022-11-25T00:57:28;17.33;;;15.40;;
32625;SDS011;19038;50.922;11.880;2022-11-25T01:02:28;14.93;;;12.90;;
32625;SDS011;19038;50.922;11.880;2022-11-25T01:07:28;17.93;;;13.57;;
32625;SDS011;19038;50.922;11.880;2022-11-25T01:12:28;13.90;;;10.10;;
32625;SDS011;19038;50.922;11.880;2022-11-25T01:17:28;11.40;;;10.17;;
32625;SDS011;19038;50.922;11.880;2022-11-25T01:22:28;15.43;;;11.63;;
32625;SDS011;19038;50.922;11.880;2022-11-25T01:27:28;11.27;;;10.17;;
32625;SDS011;19038;50.922;11.880;2022-11-25T01:32:28;12.07;;;10.83;;
32625;SDS011;19038;50.922;11.880;2022-11-25T01:37:28;13.33;;;10.70;;
32625;SDS011;19038;50.922;11.880;2022-11-25T01:42:29;13.80;;;10.50;;
32625;SDS011;19038;50.922;11.880;2022-11-25T01:47:28;12.93;;;8.77;;
32625;SDS011;19038;50.922;11.880;2022-11-25T01:52:29;7.93;;;6.63;;
32625;SDS011;19038;50.922;11.880;2022-11-25T01:57:30;7.60;;;6.50;;
32625;SDS011;19038;50.922;11.880;2022-11-25T02:02:28;7.50;;;6.43;;
32625;SDS011;19038;50.922;11.880;2022-11-25T02:07:30;8.03;;;5.77;;
32625;SDS011;19038;50.922;11.880;2022-11-25T02:12:28;8.33;;;6.13;;
32625;SDS011;19038;50.922;11.880;2022-11-25T02:17:28;6.50;;;5.90;;
32625;SDS011;19038;50.922;11.880;2022-11-25T02:22:34;8.23;;;6.40;;
32625;SDS011;19038;50.922;11.880;2022-11-25T02:27:28;6.20;;;5.60;;
32625;SDS011;19038;50.922;11.880;2022-11-25T02:32:28;7.30;;;5.20;;
32625;SDS011;19038;50.922;11.880;2022-11-25T02:37:28;7.30;;;5.43;;
32625;SDS011;19038;50.922;11.880;2022-11-25T02:42:28;6.67;;;5.10;;
32625;SDS011;19038;50.922;11.880;2022-11-25T02:47:28;6.90;;;5.00;;
32625;SDS011;19038;50.922;11.880;2022-11-25T02:52:28;6.57;;;5.13;;
32625;SDS011;19038;50.922;11.880;2022-11-25T02:57:28;6.07;;;4.50;;
32625;SDS011;19038;50.922;11.880;2022-11-25T03:02:28;5.67;;;5.07;;
32625;SDS011;19038;50.922;11.880;2022-11-25T03:07:28;4.60;;;4.20;;
32625;SDS011;19038;50.922;11.880;2022-11-25T03:12:28;4.80;;;4.40;;
32625;SDS011;19038;50.922;11.880;2022-11-25T03:17:28;5.07;;;3.97;;
32625;SDS011;19038;50.922;11.880;2022-11-25T03:22:28;3.80;;;3.17;;
32625;SDS011;19038;50.922;11.880;2022-11-25T03:27:28;6.93;;;4.63;;
32625;SDS011;19038;50.922;11.880;2022-11-25T03:32:28;7.70;;;5.70;;
32625;SDS011;19038;50.922;11.880;2022-11-25T03:37:28;8.50;;;5.80;;
32625;SDS011;19038;50.922;11.880;2022-11-25T03:42:28;9.07;;;3.83;;
32625;SDS011;19038;50.922;11.880;2022-11-25T03:47:28;6.10;;;3.90;;
32625;SDS011;19038;50.922;11.880;2022-11-25T03:52:28;5.70;;;3.63;;
32625;SDS011;19038;50.922;11.880;2022-11-25T03:57:28;5.87;;;3.80;;
32625;SDS011;19038;50.922;11.880;2022-11-25T04:02:28;5.13;;;3.77;;
32625;SDS011;19038;50.922;11.880;2022-11-25T04:07:28;3.77;;;3.30;;
32625;SDS011;19038;50.922;11.880;2022-11-25T04:12:28;4.13;;;3.10;;
32625;SDS011;19038;50.922;11.880;2022-11-25T04:17:28;2.80;;;2.60;;
32625;SDS011;19038;50.922;11.880;2022-11-25T04:22:28;9.43;;;4.33;;
32625;SDS011;19038;50.922;11.880;2022-11-25T04:27:28;4.20;;;2.90;;
32625;SDS011;19038;50.922;11.880;2022-11-25T04:32:28;4.50;;;3.23;;
32625;SDS011;19038;50.922;11.880;2022-11-25T04:37:28;4.90;;;3.63;;
32625;SDS011;19038;50.922;11.880;2022-11-25T04:42:28;4.83;;;4.27;;
32625;SDS011;19038;50.922;11.880;2022-11-25T04:47:28;5.73;;;4.10;;
32625;SDS011;19038;50.922;11.880;2022-11-25T04:52:28;5.60;;;4.10;;
32625;SDS011;19038;50.922;11.880;2022-11-25T04:57:28;4.97;;;3.63;;
32625;SDS011;19038;50.922;11.880;2022-11-25T05:02:28;6.73;;;3.53;;
32625;SDS011;19038;50.922;11.880;2022-11-25T05:07:28;3.97;;;3.60;;
32625;SDS011;19038;50.922;11.880;2022-11-25T05:17:30;6.40;;;4.53;;
32625;SDS011;19038;50.922;11.880;2022-11-25T05:22:31;5.93;;;3.80;;
32625;SDS011;19038;50.922;11.880;2022-11-25T05:27:30;4.50;;;3.73;;
32625;SDS011;19038;50.922;11.880;2022-11-25T05:32:29;7.63;;;6.00;;
32625;SDS011;19038;50.922;11.880;2022-11-25T05:37:29;8.80;;;6.87;;
32625;SDS011;19038;50.922;11.880;2022-11-25T05:42:28;8.43;;;7.73;;
32625;SDS011;19038;50.922;11.880;2022-11-25T05:47:28;12.33;;;11.03;;
32625;SDS011;19038;50.922;11.880;2022-11-25T05:52:28;21.20;;;15.00;;
32625;SDS011;19038;50.922;11.880;2022-11-25T05:57:28;24.57;;;18.30;;
32625;SDS011;19038;50.922;11.880;2022-11-25T06:02:28;20.40;;;16.27;;
32625;SDS011;19038;50.922;11.880;2022-11-25T06:07:28;18.17;;;15.50;;
32625;SDS011;19038;50.922;11.880;2022-11-25T06:12:28;18.80;;;15.33;;
32625;SDS011;19038;50.922;11.880;2022-11-25T06:17:29;23.13;;;16.30;;
32625;SDS011;19038;50.922;11.880;2022-11-25T06:22:28;19.80;;;16.60;;
32625;SDS011;19038;50.922;11.880;2022-11-25T06:27:28;23.93;;;16.60;;
32625;SDS011;19038;50.922;11.880;2022-11-25T06:32:28;22.00;;;16.60;;
32625;SDS011;19038;50.922;11.880;2022-11-25T06:37:28;17.20;;;13.50;;
32625;SDS011;19038;50.922;11.880;2022-11-25T06:42:29;17.87;;;12.53;;
32625;SDS011;19038;50.922;11.880;2022-11-25T06:47:28;13.90;;;11.37;;
32625;SDS011;19038;50.922;11.880;2022-11-25T06:52:29;18.07;;;11.10;;
32625;SDS011;19038;50.922;11.880;2022-11-25T06:57:28;14.93;;;13.03;;
32625;SDS011;19038;50.922;11.880;2022-11-25T07:02:28;19.70;;;14.77;;
32625;SDS011;19038;50.922;11.880;2022-11-25T07:07:28;16.40;;;13.90;;
32625;SDS011;19038;50.922;11.880;2022-11-25T07:12:29;19.23;;;15.10;;
32625;SDS011;19038;50.922;11.880;2022-11-25T07:17:28;16.13;;;13.93;;
32625;SDS011;19038;50.922;11.880;2022-11-25T07:22:28;15.20;;;13.60;;
32625;SDS011;19038;50.922;11.880;2022-11-25T07:27:28;13.13;;;10.87;;
32625;SDS011;19038;50.922;11.880;2022-11-25T07:32:31;12.10;;;9.20;;
32625;SDS011;19038;50.922;11.880;2022-11-25T07:37:28;12.03;;;7.90;;
32625;SDS011;19038;50.922;11.880;2022-11-25T07:42:28;10.00;;;8.33;;
32625;SDS011;19038;50.922;11.880;2022-11-25T07:47:28;13.50;;;9.73;;
32625;SDS011;19038;50.922;11.880;2022-11-25T07:52:28;11.53;;;8.50;;
32625;SDS011;19038;50.922;11.880;2022-11-25T07:57:28;12.50;;;8.70;;
32625;SDS011;19038;50.922;11.880;2022-11-25T08:02:28;11.03;;;7.93;;
32625;SDS011;19038;50.922;11.880;2022-11-25T08:07:28;13.10;;;9.10;;
32625;SDS011;19038;50.922;11.880;2022-11-25T08:12:30;13.50;;;10.70;;
32625;SDS011;19038;50.922;11.880;2022-11-25T08:17:28;19.13;;;14.10;;
32625;SDS011;19038;50.922;11.880;2022-11-25T08:22:28;18.70;;;15.40;;
32625;SDS011;19038;50.922;11.880;2022-11-25T08:27:29;25.47;;;18.80;;
32625;SDS011;19038;50.922;11.880;2022-11-25T08:32:29;25.50;;;20.13;;
32625;SDS011;19038;50.922;11.880;2022-11-25T08:37:29;22.33;;;17.60;;
32625;SDS011;19038;50.922;11.880;2022-11-25T08:42:29;22.20;;;17.80;;
32625;SDS011;19038;50.922;11.880;2022-11-25T08:47:29;20.03;;;16.60;;
32625;SDS011;19038;50.922;11.880;2022-11-25T08:52:29;13.20;;;11.37;;
32625;SDS011;19038;50.922;11.880;2022-11-25T08:57:29;12.18;;;10.98;;
32625;SDS011;19038;50.922;11.880;2022-11-25T09:02:29;9.37;;;7.17;;
32625;SDS011;19038;50.922;11.880;2022-11-25T09:07:29;9.63;;;8.10;;
32625;SDS011;19038;50.922;11.880;2022-11-25T09:12:29;12.70;;;10.20;;
32625;SDS011;19038;50.922;11.880;2022-11-25T09:17:29;7.93;;;7.13;;
32625;SDS011;19038;50.922;11.880;2022-11-25T09:22:29;11.30;;;5.90;;
32625;SDS011;19038;50.922;11.880;2022-11-25T09:27:29;6.33;;;4.40;;
32625;SDS011;19038;50.922;11.880;2022-11-25T09:32:29;7.70;;;5.07;;
32625;SDS011;19038;50.922;11.880;2022-11-25T09:37:29;7.73;;;5.17;;
32625;SDS011;19038;50.922;11.880;2022-11-25T09:47:36;8.00;;;4.37;;
32625;SDS011;19038;50.922;11.880;2022-11-25T09:52:34;8.60;;;5.63;;
32625;SDS011;19038;50.922;11.880;2022-11-25T09:57:37;4.53;;;3.40;;
32625;SDS011;19038;50.922;11.880;2022-11-25T10:02:33;4.50;;;3.80;;
32625;SDS011;19038;50.922;11.880;2022-11-25T10:12:30;4.20;;;2.90;;
32625;SDS011;19038;50.922;11.880;2022-11-25T10:22:31;5.80;;;3.40;;
32625;SDS011;19038;50.922;11.880;2022-11-25T10:27:32;8.47;;;3.17;;
32625;SDS011;19038;50.922;11.880;2022-11-25T10:32:32;7.70;;;3.40;;
32625;SDS011;19038;50.922;11.880;2022-11-25T10:37:32;11.40;;;4.27;;
32625;SDS011;19038;50.922;11.880;2022-11-25T10:42:29;6.90;;;3.17;;
32625;SDS011;19038;50.922;11.880;2022-11-25T10:52:31;4.23;;;3.20;;
32625;SDS011;19038;50.922;11.880;2022-11-25T10:57:29;3.40;;;2.50;;
32625;SDS011;19038;50.922;11.880;2022-11-25T11:02:30;6.03;;;3.00;;
32625;SDS011;19038;50.922;11.880;2022-11-25T11:07:31;3.20;;;2.43;;
32625;SDS011;19038;50.922;11.880;2022-11-25T11:12:29;5.83;;;2.37;;
32625;SDS011;19038;50.922;11.880;2022-11-25T11:17:31;7.43;;;4.00;;
32625;SDS011;19038;50.922;11.880;2022-11-25T11:22:29;5.47;;;3.87;;
32625;SDS011;19038;50.922;11.880;2022-11-25T11:27:29;5.97;;;3.63;;
32625;SDS011;19038;50.922;11.880;2022-11-25T11:32:29;6.23;;;4.50;;
32625;SDS011;19038;50.922;11.880;2022-11-25T11:37:35;11.70;;;8.73;;
32625;SDS011;19038;50.922;11.880;2022-11-25T11:42:31;4.00;;;3.40;;
32625;SDS011;19038;50.922;11.880;2022-11-25T11:47:34;5.33;;;3.60;;
32625;SDS011;19038;50.922;11.880;2022-11-25T11:52:34;7.27;;;3.57;;
32625;SDS011;19038;50.922;11.880;2022-11-25T12:07:33;6.67;;;4.87;;
32625;SDS011;19038;50.922;11.880;2022-11-25T12:12:33;6.37;;;4.20;;
32625;SDS011;19038;50.922;11.880;2022-11-25T12:17:31;3.80;;;3.40;;
32625;SDS011;19038;50.922;11.880;2022-11-25T12:37:31;4.93;;;4.07;;
32625;SDS011;19038;50.922;11.880;2022-11-25T12:42:29;7.90;;;5.70;;
32625;SDS011;19038;50.922;11.880;2022-11-25T12:47:29;8.17;;;5.33;;
32625;SDS011;19038;50.922;11.880;2022-11-25T12:52:34;6.13;;;4.20;;
32625;SDS011;19038;50.922;11.880;2022-11-25T13:07:34;4.23;;;3.83;;
32625;SDS011;19038;50.922;11.880;2022-11-25T13:17:29;12.50;;;10.40;;
32625;SDS011;19038;50.922;11.880;2022-11-25T13:22:29;11.43;;;8.00;;
32625;SDS011;19038;50.922;11.880;2022-11-25T13:27:31;6.73;;;6.03;;
32625;SDS011;19038;50.922;11.880;2022-11-25T13:32:31;8.60;;;5.93;;
32625;SDS011;19038;50.922;11.880;2022-11-25T13:37:33;4.77;;;4.10;;
32625;SDS011;19038;50.922;11.880;2022-11-25T13:42:29;7.07;;;5.23;;
32625;SDS011;19038;50.922;11.880;2022-11-25T13:47:31;7.30;;;6.60;;
32625;SDS011;19038;50.922;11.880;2022-11-25T13:57:30;10.57;;;9.60;;
32625;SDS011;19038;50.922;11.880;2022-11-25T14:02:30;18.83;;;11.50;;
32625;SDS011;19038;50.922;11.880;2022-11-25T14:12:32;16.57;;;12.37;;
32625;SDS011;19038;50.922;11.880;2022-11-25T14:17:39;8.67;;;7.60;;
32625;SDS011;19038;50.922;11.880;2022-11-25T14:22:33;7.80;;;6.77;;
32625;SDS011;19038;50.922;11.880;2022-11-25T14:27:29;7.20;;;6.50;;
32625;SDS011;19038;50.922;11.880;2022-11-25T14:32:32;5.63;;;5.03;;
32625;SDS011;19038;50.922;11.880;2022-11-25T14:47:31;11.63;;;8.40;;
32625;SDS011;19038;50.922;11.880;2022-11-25T14:52:30;11.47;;;7.60;;
32625;SDS011;19038;50.922;11.880;2022-11-25T14:57:32;7.33;;;6.23;;
32625;SDS011;19038;50.922;11.880;2022-11-25T15:02:30;9.97;;;8.50;;
32625;SDS011;19038;50.922;11.880;2022-11-25T15:07:29;8.47;;;6.57;;
32625;SDS011;19038;50.922;11.880;2022-11-25T15:12:30;7.13;;;6.43;;
32625;SDS011;19038;50.922;11.880;2022-11-25T15:17:30;13.10;;;10.60;;
32625;SDS011;19038;50.922;11.880;2022-11-25T15:22:29;37.70;;;29.30;;
32625;SDS011;19038;50.922;11.880;2022-11-25T15:27:29;92.27;;;67.07;;
32625;SDS011;19038;50.922;11.880;2022-11-25T15:32:30;48.87;;;40.23;;
32625;SDS011;19038;50.922;11.880;2022-11-25T15:37:29;39.80;;;35.47;;
32625;SDS011;19038;50.922;11.880;2022-11-25T15:42:29;76.10;;;56.33;;
32625;SDS011;19038;50.922;11.880;2022-11-25T15:47:30;19.97;;;17.33;;
32625;SDS011;19038;50.922;11.880;2022-11-25T15:52:30;14.60;;;10.23;;
32625;SDS011;19038;50.922;11.880;2022-11-25T15:57:30;13.07;;;11.73;;
32625;SDS011;19038;50.922;11.880;2022-11-25T16:02:34;13.40;;;12.00;;
32625;SDS011;19038;50.922;11.880;2022-11-25T16:07:29;14.83;;;13.30;;
32625;SDS011;19038;50.922;11.880;2022-11-25T16:12:29;13.57;;;10.07;;
32625;SDS011;19038;50.922;11.880;2022-11-25T16:17:29;13.10;;;10.13;;
32625;SDS011;19038;50.922;11.880;2022-11-25T16:22:29;13.83;;;11.67;;
32625;SDS011;19038;50.922;11.880;2022-11-25T16:27:29;12.23;;;11.07;;
32625;SDS011;19038;50.922;11.880;2022-11-25T16:32:30;12.00;;;10.63;;
32625;SDS011;19038;50.922;11.880;2022-11-25T16:37:29;14.60;;;11.17;;
32625;SDS011;19038;50.922;11.880;2022-11-25T16:42:29;15.27;;;12.17;;
32625;SDS011;19038;50.922;11.880;2022-11-25T16:47:29;11.93;;;10.37;;
32625;SDS011;19038;50.922;11.880;2022-11-25T16:52:29;16.83;;;12.53;;
32625;SDS011;19038;50.922;11.880;2022-11-25T16:57:29;20.77;;;16.17;;
32625;SDS011;19038;50.922;11.880;2022-11-25T17:02:29;24.70;;;21.43;;
32625;SDS011;19038;50.922;11.880;2022-11-25T17:07:30;23.03;;;20.80;;
32625;SDS011;19038;50.922;11.880;2022-11-25T17:12:31;30.10;;;27.17;;
32625;SDS011;19038;50.922;11.880;2022-11-25T17:17:29;25.50;;;22.67;;
32625;SDS011;19038;50.922;11.880;2022-11-25T17:22:30;27.93;;;25.00;;
32625;SDS011;19038;50.922;11.880;2022-11-25T17:27:30;21.33;;;17.67;;
32625;SDS011;19038;50.922;11.880;2022-11-25T17:32:30;16.03;;;14.53;;
32625;SDS011;19038;50.922;11.880;2022-11-25T17:37:30;15.50;;;13.90;;
32625;SDS011;19038;50.922;11.880;2022-11-25T17:42:30;11.67;;;10.40;;
32625;SDS011;19038;50.922;11.880;2022-11-25T17:46:58;13.20;;;11.80;;
32625;SDS011;19038;50.922;11.880;2022-11-25T17:51:58;15.80;;;11.80;;
32625;SDS011;19038;50.922;11.880;2022-11-25T17:56:58;13.43;;;12.10;;
32625;SDS011;19038;50.922;11.880;2022-11-25T18:01:58;14.30;;;12.00;;
32625;SDS011;19038;50.922;11.880;2022-11-25T18:06:58;13.90;;;12.30;;
32625;SDS011;19038;50.922;11.880;2022-11-25T18:11:59;13.73;;;12.30;;
32625;SDS011;19038;50.922;11.880;2022-11-25T18:16:59;17.07;;;15.47;;
32625;SDS011;19038;50.922;11.880;2022-11-25T18:21:59;13.60;;;12.20;;
32625;SDS011;19038;50.922;11.880;2022-11-25T18:26:58;18.63;;;14.30;;
32625;SDS011;19038;50.922;11.880;2022-11-25T18:31:58;14.83;;;13.27;;
32625;SDS011;19038;50.922;11.880;2022-11-25T18:36:58;148.67;;;88.47;;
32625;SDS011;19038;50.922;11.880;2022-11-25T18:41:59;36.40;;;27.57;;
32625;SDS011;19038;50.922;11.880;2022-11-25T18:46:58;22.00;;;19.60;;
32625;SDS011;19038;50.922;11.880;2022-11-25T18:51:58;20.60;;;17.80;;
32625;SDS011;19038;50.922;11.880;2022-11-25T18:56:59;20.90;;;17.17;;
32625;SDS011;19038;50.922;11.880;2022-11-25T19:01:59;22.90;;;19.10;;
32625;SDS011;19038;50.922;11.880;2022-11-25T19:06:58;17.13;;;15.33;;
32625;SDS011;19038;50.922;11.880;2022-11-25T19:11:58;13.93;;;12.57;;
32625;SDS011;19038;50.922;11.880;2022-11-25T19:17:00;18.43;;;16.13;;
32625;SDS011;19038;50.922;11.880;2022-11-25T19:21:58;14.00;;;12.60;;
32625;SDS011;19038;50.922;11.880;2022-11-25T19:26:58;12.43;;;11.17;;
32625;SDS011;19038;50.922;11.880;2022-11-25T19:31:59;11.30;;;10.10;;
32625;SDS011;19038;50.922;11.880;2022-11-25T19:36:58;10.47;;;9.47;;
32625;SDS011;19038;50.922;11.880;2022-11-25T19:41:59;10.87;;;9.40;;
32625;SDS011;19038;50.922;11.880;2022-11-25T19:46:58;11.70;;;10.50;;
32625;SDS011;19038;50.922;11.880;2022-11-25T19:51:58;10.60;;;9.50;;
32625;SDS011;19038;50.922;11.880;2022-11-25T19:56:58;11.63;;;10.43;;
32625;SDS011;19038;50.922;11.880;2022-11-25T20:01:58;12.67;;;11.10;;
32625;SDS011;19038;50.922;11.880;2022-11-25T20:06:58;11.50;;;10.37;;
32625;SDS011;19038;50.922;11.880;2022-11-25T20:11:58;11.03;;;9.67;;
32625;SDS011;19038;50.922;11.880;2022-11-25T20:16:58;15.83;;;12.23;;
32625;SDS011;19038;50.922;11.880;2022-11-25T20:21:59;13.83;;;10.90;;
32625;SDS011;19038;50.922;11.880;2022-11-25T20:26:58;13.20;;;10.93;;
32625;SDS011;19038;50.922;11.880;2022-11-25T20:31:59;11.73;;;10.53;;
32625;SDS011;19038;50.922;11.880;2022-11-25T20:36:59;11.13;;;9.90;;
32625;SDS011;19038;50.922;11.880;2022-11-25T20:41:59;12.40;;;11.33;;
32625;SDS011;19038;50.922;11.880;2022-11-25T20:46:59;11.43;;;10.43;;
32625;SDS011;19038;50.922;11.880;2022-11-25T20:51:59;10.90;;;10.00;;
32625;SDS011;19038;50.922;11.880;2022-11-25T20:56:59;13.10;;;11.80;;
32625;SDS011;19038;50.922;11.880;2022-11-25T21:01:59;18.13;;;16.40;;
32625;SDS011;19038;50.922;11.880;2022-11-25T21:06:59;16.70;;;15.00;;
32625;SDS011;19038;50.922;11.880;2022-11-25T21:11:59;17.67;;;15.80;;
32625;SDS011;19038;50.922;11.880;2022-11-25T21:16:59;17.10;;;15.43;;
32625;SDS011;19038;50.922;11.880;2022-11-25T21:21:59;14.07;;;12.60;;
32625;SDS011;19038;50.922;11.880;2022-11-25T21:27:01;13.07;;;11.77;;
32625;SDS011;19038;50.922;11.880;2022-11-25T21:31:59;15.30;;;13.50;;
32625;SDS011;19038;50.922;11.880;2022-11-25T21:36:59;19.63;;;16.47;;
32625;SDS011;19038;50.922;11.880;2022-11-25T21:42:00;26.83;;;19.27;;
32625;SDS011;19038;50.922;11.880;2022-11-25T21:46:59;31.00;;;22.17;;
32625;SDS011;19038;50.922;11.880;2022-11-25T21:51:59;24.07;;;17.63;;
32625;SDS011;19038;50.922;11.880;2022-11-25T21:56:59;37.30;;;25.10;;
32625;SDS011;19038;50.922;11.880;2022-11-25T22:01:59;25.97;;;19.10;;
32625;SDS011;19038;50.922;11.880;2022-11-25T22:06:59;27.50;;;21.67;;
32625;SDS011;19038;50.922;11.880;2022-11-25T22:11:59;28.07;;;19.67;;
32625;SDS011;19038;50.922;11.880;2022-11-25T22:17:00;32.27;;;21.23;;
32625;SDS011;19038;50.922;11.880;2022-11-25T22:21:59;25.67;;;19.40;;
32625;SDS011;19038;50.922;11.880;2022-11-25T22:26:59;24.70;;;17.17;;
32625;SDS011;19038;50.922;11.880;2022-11-25T22:31:59;27.20;;;18.00;;
32625;SDS011;19038;50.922;11.880;2022-11-25T22:36:59;29.47;;;19.73;;
32625;SDS011;19038;50.922;11.880;2022-11-25T22:42:01;36.13;;;24.80;;
32625;SDS011;19038;50.922;11.880;2022-11-25T22:46:59;40.40;;;23.87;;
32625;SDS011;19038;50.922;11.880;2022-11-25T22:51:59;33.43;;;23.70;;
32625;SDS011;19038;50.922;11.880;2022-11-25T22:56:59;33.63;;;22.00;;
32625;SDS011;19038;50.922;11.880;2022-11-25T23:01:59;30.70;;;21.70;;
32625;SDS011;19038;50.922;11.880;2022-11-25T23:06:59;29.20;;;19.47;;
32625;SDS011;19038;50.922;11.880;2022-11-25T23:11:59;42.53;;;26.60;;
32625;SDS011;19038;50.922;11.880;2022-11-25T23:16:59;40.03;;;25.87;;
32625;SDS011;19038;50.922;11.880;2022-11-25T23:21:59;37.40;;;23.10;;
32625;SDS011;19038;50.922;11.880;2022-11-25T23:26:59;28.10;;;21.73;;
32625;SDS011;19038;50.922;11.880;2022-11-25T23:32:00;21.90;;;18.77;;
32625;SDS011;19038;50.922;11.880;2022-11-25T23:36:59;21.03;;;16.63;;
32625;SDS011;19038;50.922;11.880;2022-11-25T23:41:59;19.87;;;16.80;;
32625;SDS011;19038;50.922;11.880;2022-11-25T23:47:00;20.00;;;15.20;;
32625;SDS011;19038;50.922;11.880;2022-11-25T23:52:00;23.33;;;17.63;;
32625;SDS011;19038;50.922;11.880;2022-11-25T23:56:59;20.37;;;17.37;;
